Time;durP1;ratioP1;P1;durP2;ratioP2;P2;SDS_P1;SDS_P2;PMS_P1;PMS_P2;Temp;Humidity;BMP_temperature;BMP_pressure;BME280_temperature;BME280_humidity;BME280_pressure;Samples;Min_cycle;Max_cycle;Signal;HPM_P1;HPM_P2
2021/12/14 00:02:16;;;;;;;21.02;11.38;;;7.50;99.90;;;;;;12462599;28;20111;-90
2021/12/14 00:08:18;;;;;;;20.13;12.20;;;7.50;99.90;;;;;;12471963;28;20057;-90
2021/12/14 00:20:49;;;;;;;19.67;11.98;;;7.50;99.90;;;;;;12482530;28;20528;-90
2021/12/14 00:27:00;;;;;;;22.73;12.02;;;7.50;99.90;;;;;;12466474;28;20049;-90
2021/12/14 00:33:06;;;;;;;18.85;11.02;;;7.50;99.90;;;;;;12476963;28;20055;-90
2021/12/14 00:39:09;;;;;;;19.65;10.95;;;7.50;99.90;;;;;;12466371;28;20061;-90
2021/12/14 00:45:13;;;;;;;18.58;11.00;;;7.50;99.90;;;;;;12464113;28;20067;-91
2021/12/14 00:51:18;;;;;;;;;;;7.50;99.90;;;;;;12461833;28;20114;-91
2021/12/14 00:57:20;;;;;;;18.83;11.52;;;7.50;99.90;;;;;;12462489;28;20488;-91
2021/12/14 01:03:25;;;;;;;18.33;12.02;;;7.40;99.90;;;;;;12464080;28;20127;-90
2021/12/14 01:09:28;;;;;;;;;;;7.40;99.90;;;;;;12486239;28;20053;-91
2021/12/14 01:15:49;;;;;;;22.95;13.23;;;7.40;99.90;;;;;;12466440;28;20524;-90
2021/12/14 01:22:15;;;;;;;21.45;13.30;;;7.40;99.90;;;;;;12475452;28;20444;-89
2021/12/14 01:28:22;;;;;;;22.77;13.85;;;7.40;99.90;;;;;;12466618;28;20045;-90
2021/12/14 01:34:24;;;;;;;20.73;13.35;;;7.40;99.90;;;;;;12458750;28;20056;-89
2021/12/14 01:40:52;;;;;;;20.05;13.48;;;7.30;99.90;;;;;;12456758;28;20064;-90
2021/12/14 01:46:57;;;;;;;21.10;13.63;;;7.30;99.90;;;;;;12476216;28;20446;-90
2021/12/14 01:53:00;;;;;;;20.33;12.27;;;7.40;99.90;;;;;;12423823;28;20644;-90
2021/12/14 01:59:22;;;;;;;19.27;12.30;;;7.40;99.90;;;;;;12423066;28;20395;-90
2021/12/14 02:05:29;;;;;;;18.42;12.13;;;7.30;99.90;;;;;;12424167;28;20815;-90
2021/12/14 02:11:34;;;;;;;18.70;12.13;;;7.20;99.90;;;;;;12423401;28;20045;-90
2021/12/14 02:17:39;;;;;;;18.50;11.95;;;7.20;99.90;;;;;;12428356;28;20061;-89
2021/12/14 02:23:45;;;;;;;18.10;11.65;;;7.20;99.90;;;;;;12423707;28;20046;-91
2021/12/14 02:29:49;;;;;;;17.23;11.52;;;7.20;99.90;;;;;;12421881;28;20057;-90
2021/12/14 02:35:52;;;;;;;16.95;11.55;;;7.20;99.90;;;;;;12429476;28;20048;-90
2021/12/14 02:41:58;;;;;;;17.30;11.85;;;7.10;99.90;;;;;;12424663;28;20045;-91
2021/12/14 02:48:07;;;;;;;15.50;11.20;;;7.20;99.90;;;;;;12438403;28;20058;-89
2021/12/14 02:54:16;;;;;;;15.07;11.13;;;7.20;99.90;;;;;;12453017;28;20042;-91
2021/12/14 03:00:23;;;;;;;14.77;10.70;;;7.10;99.90;;;;;;12426403;28;20053;-90
2021/12/14 03:06:31;;;;;;;14.65;10.70;;;7.10;99.90;;;;;;12431506;28;20064;-90
2021/12/14 03:12:41;;;;;;;14.93;10.98;;;7.10;99.90;;;;;;12418750;28;20448;-89
2021/12/14 03:18:47;;;;;;;14.27;10.23;;;7.20;99.90;;;;;;12437296;28;20306;-89
2021/12/14 03:24:50;;;;;;;14.38;9.98;;;7.10;99.90;;;;;;12446370;28;20045;-90
2021/12/14 03:30:58;;;;;;;14.38;10.30;;;7.10;99.90;;;;;;12449928;28;20059;-90
2021/12/14 03:37:06;;;;;;;12.75;9.18;;;7.10;99.90;;;;;;12445157;28;20542;-89
2021/12/14 03:43:12;;;;;;;13.55;9.65;;;7.10;99.90;;;;;;12433279;28;20125;-90
2021/12/14 03:49:16;;;;;;;13.95;9.60;;;7.10;99.90;;;;;;12444640;28;20082;-91
2021/12/14 03:55:26;;;;;;;13.30;9.13;;;7.10;99.90;;;;;;12469662;28;20484;-90
2021/12/14 04:01:37;;;;;;;13.57;9.45;;;7.10;99.90;;;;;;12476396;28;20441;-90
2021/12/14 04:07:42;;;;;;;12.45;9.75;;;7.20;99.90;;;;;;12483047;28;20045;-90
2021/12/14 04:13:46;;;;;;;;;;;7.10;99.90;;;;;;12469997;28;20103;-91
2021/12/14 04:19:49;;;;;;;12.40;8.77;;;7.10;99.90;;;;;;12483957;28;20393;-90
2021/12/14 04:25:54;;;;;;;13.48;9.35;;;7.10;99.90;;;;;;12462857;28;20041;-88
2021/12/14 04:31:56;;;;;;;14.20;9.18;;;7.10;99.90;;;;;;12487272;28;20838;-89
2021/12/14 04:38:05;;;;;;;14.07;9.40;;;7.10;99.90;;;;;;12469950;28;20102;-89
2021/12/14 04:56:49;;;;;;;12.40;9.27;;;7.10;99.90;;;;;;12493233;28;20060;-89
2021/12/14 05:02:53;;;;;;;14.25;9.00;;;7.10;99.90;;;;;;12484316;28;20051;-90
2021/12/14 05:09:29;;;;;;;13.70;9.15;;;7.00;99.90;;;;;;12466990;28;20505;-91
2021/12/14 05:15:36;;;;;;;11.63;8.88;;;7.10;99.90;;;;;;12463692;28;20080;-90
2021/12/14 05:21:44;;;;;;;13.82;9.68;;;7.10;99.90;;;;;;12452534;28;20132;-90
2021/12/14 05:27:49;;;;;;;15.45;9.27;;;7.10;99.90;;;;;;12475949;28;20452;-90
2021/12/14 05:33:53;;;;;;;15.90;10.20;;;7.00;99.90;;;;;;12465520;28;20136;-90
2021/12/14 05:40:02;;;;;;;13.60;9.43;;;7.00;99.90;;;;;;12465050;28;20057;-90
2021/12/14 05:46:07;;;;;;;13.50;10.23;;;7.00;99.90;;;;;;12458341;28;20331;-90
2021/12/14 05:52:20;;;;;;;15.10;10.97;;;7.00;99.90;;;;;;12456181;28;20073;-89
2021/12/14 05:58:24;;;;;;;17.92;11.13;;;7.00;99.90;;;;;;12459216;28;20060;-89
2021/12/14 06:04:32;;;;;;;17.77;12.03;;;7.00;99.90;;;;;;12460280;28;20080;-88
2021/12/14 06:10:34;;;;;;;20.35;12.73;;;7.00;99.90;;;;;;12480770;28;20059;-90
2021/12/14 06:16:38;;;;;;;18.90;13.07;;;7.00;99.90;;;;;;12467523;28;20065;-89
2021/12/14 06:22:42;;;;;;;18.25;12.65;;;7.00;99.90;;;;;;12459791;28;20049;-90
2021/12/14 06:28:45;;;;;;;18.70;13.27;;;7.00;99.90;;;;;;12468315;28;20049;-90
2021/12/14 06:34:51;;;;;;;20.45;13.75;;;7.00;99.90;;;;;;12463517;28;20069;-90
2021/12/14 06:41:05;;;;;;;19.05;14.00;;;7.00;99.90;;;;;;12460578;28;20049;-91
2021/12/14 06:47:07;;;;;;;23.43;14.67;;;7.00;99.90;;;;;;12485760;28;20480;-89
2021/12/14 06:53:12;;;;;;;20.80;14.35;;;6.90;99.90;;;;;;12422475;28;20131;-89
2021/12/14 06:59:16;;;;;;;22.38;15.43;;;6.90;99.90;;;;;;12423398;28;20049;-89
2021/12/14 07:05:20;;;;;;;23.48;15.88;;;6.90;99.90;;;;;;12441356;28;20064;-90
2021/12/14 07:11:23;;;;;;;;;;;7.00;99.90;;;;;;12435417;28;20040;-90
2021/12/14 07:17:41;;;;;;;22.88;16.45;;;7.00;99.90;;;;;;12422978;28;19929;-91
2021/12/14 07:23:43;;;;;;;24.30;16.33;;;7.00;99.90;;;;;;12442575;28;20042;-91
2021/12/14 07:29:46;;;;;;;24.98;17.88;;;7.00;99.90;;;;;;12428353;28;20045;-91
2021/12/14 07:35:53;;;;;;;23.85;17.15;;;7.10;99.90;;;;;;12419629;28;20058;-91
2021/12/14 07:41:58;;;;;;;24.13;18.40;;;7.00;99.90;;;;;;12432707;28;20132;-91
2021/12/14 07:48:00;;;;;;;27.60;20.33;;;7.00;99.90;;;;;;12425415;28;20074;-91
2021/12/14 07:54:14;;;;;;;29.90;22.27;;;7.00;99.90;;;;;;12422293;28;20045;-90
2021/12/14 08:00:23;;;;;;;30.05;21.67;;;7.00;99.90;;;;;;12420765;28;20052;-89
2021/12/14 08:06:45;;;;;;;31.52;22.67;;;7.00;99.90;;;;;;12434518;28;20055;-91
2021/12/14 08:12:56;;;;;;;32.33;23.27;;;6.90;99.90;;;;;;12447420;28;20148;-92
2021/12/14 08:18:57;;;;;;;35.25;24.80;;;6.90;99.90;;;;;;12429671;28;20177;-91
2021/12/14 08:25:00;;;;;;;37.60;25.52;;;6.90;99.90;;;;;;12428995;28;20050;-90
2021/12/14 08:31:05;;;;;;;39.78;27.38;;;7.00;99.90;;;;;;12428826;28;20046;-88
2021/12/14 08:37:20;;;;;;;36.95;24.85;;;7.00;99.90;;;;;;12431372;28;20085;-91
2021/12/14 08:43:32;;;;;;;35.72;25.90;;;7.00;99.90;;;;;;12431452;28;20164;-92
2021/12/14 08:49:35;;;;;;;39.53;27.55;;;7.00;99.90;;;;;;12440088;28;20736;-90
2021/12/14 08:55:38;;;;;;;39.22;26.08;;;7.00;99.90;;;;;;12468164;28;20053;-90
2021/12/14 09:01:42;;;;;;;36.05;25.40;;;7.00;99.90;;;;;;12469415;28;20597;-90
2021/12/14 09:07:45;;;;;;;38.38;25.48;;;7.10;99.90;;;;;;12461216;28;20084;-91
2021/12/14 09:13:48;;;;;;;37.85;25.63;;;7.10;99.90;;;;;;12474196;28;20145;-90
2021/12/14 09:20:04;;;;;;;35.47;24.65;;;7.20;99.90;;;;;;12459847;28;20107;-90
2021/12/14 09:26:12;;;;;;;36.00;24.55;;;7.20;99.90;;;;;;12465359;28;20047;-90
2021/12/14 09:32:23;;;;;;;36.78;25.33;;;7.30;99.90;;;;;;12456171;28;20123;-90
2021/12/14 09:38:34;;;;;;;35.25;24.58;;;7.30;99.90;;;;;;12464378;28;20057;-89
2021/12/14 09:44:36;;;;;;;35.45;24.17;;;7.40;99.90;;;;;;12471762;28;20671;-90
2021/12/14 09:50:40;;;;;;;35.05;24.20;;;7.40;99.90;;;;;;12469248;28;20041;-89
2021/12/14 09:56:54;;;;;;;37.13;24.90;;;7.50;99.90;;;;;;12470835;28;20129;-91
2021/12/14 10:02:59;;;;;;;35.67;24.50;;;7.60;99.90;;;;;;12479751;28;20053;-90
2021/12/14 10:09:11;;;;;;;38.38;25.95;;;7.60;99.90;;;;;;12485071;28;20132;-90
2021/12/14 10:15:18;;;;;;;35.88;24.55;;;7.70;99.90;;;;;;12462213;28;20139;-90
2021/12/14 10:21:39;;;;;;;34.63;24.50;;;7.80;99.90;;;;;;12454253;28;20191;-91
2021/12/14 10:27:42;;;;;;;36.55;24.90;;;7.70;99.90;;;;;;12467795;28;21027;-90
2021/12/14 10:33:46;;;;;;;38.85;25.50;;;7.70;99.90;;;;;;12474903;28;20526;-89
2021/12/14 10:46:37;;;;;;;32.00;23.00;;;7.70;99.90;;;;;;12477386;28;20057;-91
2021/12/14 10:52:42;;;;;;;33.78;24.00;;;7.80;99.90;;;;;;12433624;28;20060;-91
2021/12/14 10:58:48;;;;;;;34.15;23.45;;;8.00;99.90;;;;;;12423534;28;20504;-91
2021/12/14 11:04:57;;;;;;;32.38;22.20;;;8.00;99.90;;;;;;12425771;28;20054;-90
2021/12/14 11:11:00;;;;;;;32.42;22.83;;;8.10;99.90;;;;;;12432016;28;20054;-91
2021/12/14 11:23:34;;;;;;;30.92;21.20;;;8.10;99.90;;;;;;12427322;28;20050;-91
2021/12/14 11:29:36;;;;;;;31.88;22.52;;;8.10;99.90;;;;;;12434924;28;20111;-90
2021/12/14 11:35:43;;;;;;;33.97;22.77;;;8.10;99.90;;;;;;12430887;28;20073;-91
2021/12/14 11:42:09;;;;;;;32.30;22.45;;;8.20;99.90;;;;;;12442048;28;20073;-91
2021/12/14 11:48:12;;;;;;;30.27;21.20;;;8.20;99.90;;;;;;12439314;28;20053;-91
2021/12/14 11:54:19;;;;;;;29.85;20.88;;;8.20;99.90;;;;;;12435053;28;20470;-90
2021/12/14 12:00:22;;;;;;;30.00;21.20;;;8.20;99.90;;;;;;12443111;28;20049;-90
2021/12/14 12:12:41;;;;;;;29.73;21.08;;;8.10;99.90;;;;;;12436919;28;20042;-91
2021/12/14 12:19:08;;;;;;;32.13;20.90;;;8.10;99.90;;;;;;12428173;28;20460;-91
2021/12/14 12:25:14;;;;;;;30.35;19.65;;;8.10;99.90;;;;;;12431908;28;20041;-91
2021/12/14 12:31:20;;;;;;;30.92;20.10;;;8.20;99.90;;;;;;12436859;28;20080;-91
2021/12/14 12:37:42;;;;;;;32.13;20.63;;;8.30;99.90;;;;;;12428830;28;20499;-91
2021/12/14 12:44:06;;;;;;;28.90;18.98;;;8.30;99.90;;;;;;12431821;28;20045;-91
2021/12/14 12:50:08;;;;;;;27.25;18.27;;;8.30;99.90;;;;;;12445506;28;20045;-90
2021/12/14 12:56:14;;;;;;;25.75;17.45;;;8.30;99.90;;;;;;12484909;28;20704;-91
2021/12/14 13:02:29;;;;;;;25.70;18.05;;;8.30;99.90;;;;;;12466701;28;20133;-89
2021/12/14 13:08:47;;;;;;;26.35;17.60;;;8.30;99.90;;;;;;12481791;28;20528;-92
2021/12/14 13:14:50;;;;;;;25.95;17.23;;;8.20;99.90;;;;;;12465279;28;20053;-91
2021/12/14 13:21:15;;;;;;;27.17;16.95;;;8.20;99.90;;;;;;12479798;28;20119;-90
2021/12/14 13:27:24;;;;;;;26.35;16.98;;;8.20;99.90;;;;;;12462852;28;20053;-91
2021/12/14 13:33:29;;;;;;;30.40;18.13;;;8.10;99.90;;;;;;12454745;28;20041;-90
2021/12/14 13:39:32;;;;;;;29.45;18.45;;;8.10;99.90;;;;;;12454486;28;20049;-91
2021/12/14 13:45:37;;;;;;;29.23;18.23;;;8.10;99.90;;;;;;12453359;28;20052;-91
2021/12/14 13:51:40;;;;;;;27.35;17.85;;;8.00;99.90;;;;;;12475313;28;20749;-91
2021/12/14 13:57:56;;;;;;;31.55;18.10;;;8.00;99.90;;;;;;12454761;28;20092;-91
2021/12/14 14:04:07;;;;;;;30.15;18.65;;;7.90;99.90;;;;;;12457980;28;20075;-89
2021/12/14 14:10:10;;;;;;;30.98;19.25;;;7.90;99.90;;;;;;12453676;28;20053;-90
2021/12/14 14:16:12;;;;;;;34.33;19.63;;;7.90;99.90;;;;;;12468228;28;20561;-91
2021/12/14 14:22:18;;;;;;;32.53;20.27;;;7.80;99.90;;;;;;12475616;28;20103;-90
2021/12/14 14:28:49;;;;;;;34.35;20.38;;;7.90;99.90;;;;;;12484228;28;20120;-90
2021/12/14 14:34:54;;;;;;;39.88;22.50;;;7.80;99.90;;;;;;12465751;28;20052;-92
2021/12/14 14:40:59;;;;;;;38.10;22.67;;;7.80;99.90;;;;;;12463679;28;20045;-91
2021/12/14 14:47:08;;;;;;;42.13;23.83;;;7.80;99.90;;;;;;12455301;28;20060;-89
2021/12/14 14:53:15;;;;;;;42.40;24.83;;;7.80;99.90;;;;;;12458397;28;20060;-92
2021/12/14 14:59:17;;;;;;;46.50;25.85;;;7.80;99.90;;;;;;12448597;28;20461;-91
2021/12/14 15:05:28;;;;;;;46.22;25.85;;;7.70;99.90;;;;;;12457106;28;20055;-91
2021/12/14 15:11:44;;;;;;;48.35;27.02;;;7.70;99.90;;;;;;12455309;28;20699;-90
2021/12/14 15:17:48;;;;;;;51.22;28.83;;;7.70;99.90;;;;;;12468836;28;20512;-90
2021/12/14 15:23:51;;;;;;;56.60;30.52;;;7.70;99.90;;;;;;12475457;28;20048;-91
2021/12/14 15:30:03;;;;;;;59.40;32.28;;;7.70;99.90;;;;;;12459762;28;20049;-91
2021/12/14 15:36:17;;;;;;;64.70;32.45;;;7.60;99.90;;;;;;12474666;28;20045;-91
2021/12/14 15:42:21;;;;;;;61.05;31.63;;;7.60;99.90;;;;;;12471477;28;20084;-90
2021/12/14 15:48:32;;;;;;;66.10;33.50;;;7.50;99.90;;;;;;12482431;28;20056;-91
2021/12/14 15:54:39;;;;;;;67.55;35.13;;;7.50;99.90;;;;;;12466375;28;20044;-91
2021/12/14 16:00:43;;;;;;;75.82;36.88;;;7.50;99.90;;;;;;12468262;28;20051;-90
2021/12/14 16:06:48;;;;;;;76.30;38.92;;;7.50;99.90;;;;;;12466878;28;20489;-90
2021/12/14 16:19:19;;;;;;;79.90;39.83;;;7.50;99.90;;;;;;12473894;28;20074;-90
2021/12/14 16:25:26;;;;;;;82.65;38.72;;;7.60;99.90;;;;;;12460724;28;20041;-91
2021/12/14 16:31:33;;;;;;;87.78;39.28;;;7.60;99.90;;;;;;12473688;28;20064;-89
2021/12/14 16:37:36;;;;;;;84.38;38.85;;;7.60;99.90;;;;;;12471061;28;20049;-90
2021/12/14 16:43:45;;;;;;;86.95;39.63;;;7.60;99.90;;;;;;12469917;28;20059;-91
2021/12/14 16:50:02;;;;;;;82.65;37.38;;;7.60;99.90;;;;;;12459814;28;20110;-91
2021/12/14 16:56:10;;;;;;;81.05;37.83;;;7.60;99.90;;;;;;12458397;28;20052;-91
2021/12/14 17:02:19;;;;;;;88.10;39.45;;;7.60;99.90;;;;;;12454459;28;20052;-90
2021/12/14 17:08:24;;;;;;;80.13;38.58;;;7.60;99.90;;;;;;12426180;28;20061;-90
2021/12/14 17:14:34;;;;;;;81.00;38.00;;;7.60;99.90;;;;;;12472915;28;20088;-89
2021/12/14 17:20:40;;;;;;;85.57;38.83;;;7.60;99.90;;;;;;12473737;28;20198;-90
2021/12/14 17:26:46;;;;;;;90.03;37.63;;;7.60;99.90;;;;;;12460887;28;20117;-89
2021/12/14 17:32:49;;;;;;;94.60;39.40;;;7.60;99.90;;;;;;12477015;28;20095;-90
2021/12/14 17:38:56;;;;;;;91.23;39.40;;;7.60;99.90;;;;;;12467563;28;20080;-89
2021/12/14 17:45:05;;;;;;;89.93;39.22;;;7.60;99.90;;;;;;12458697;28;20519;-91
2021/12/14 17:51:11;;;;;;;88.05;38.95;;;7.60;99.90;;;;;;12462326;28;20127;-89
2021/12/14 17:57:21;;;;;;;88.47;38.63;;;7.60;99.90;;;;;;12459826;28;20059;-90
2021/12/14 18:03:33;;;;;;;92.07;37.90;;;7.60;99.90;;;;;;12467062;28;20049;-89
2021/12/14 18:09:36;;;;;;;87.90;37.65;;;7.60;99.90;;;;;;12457290;28;20759;-90
2021/12/14 18:15:49;;;;;;;96.63;39.63;;;7.60;99.90;;;;;;12450316;28;20561;-90
2021/12/14 18:21:57;;;;;;;94.30;39.88;;;7.60;99.90;;;;;;12451443;28;20563;-92
2021/12/14 18:27:59;;;;;;;93.00;37.20;;;7.60;99.90;;;;;;12456321;28;20045;-89
2021/12/14 18:34:06;;;;;;;91.38;36.40;;;7.60;99.90;;;;;;12471056;28;20159;-89
2021/12/14 18:40:23;;;;;;;89.00;37.33;;;7.50;99.90;;;;;;12467845;28;20076;-89
2021/12/14 18:46:52;;;;;;;94.45;37.58;;;7.60;99.90;;;;;;12456828;28;20045;-90
2021/12/14 18:52:54;;;;;;;90.65;36.55;;;7.60;99.90;;;;;;12471791;28;20515;-89
2021/12/14 18:58:56;;;;;;;99.50;38.53;;;7.60;99.90;;;;;;12472518;28;20061;-90
2021/12/14 19:05:08;;;;;;;104.57;38.17;;;7.60;99.90;;;;;;12449557;28;20072;-90
2021/12/14 19:11:15;;;;;;;99.68;38.22;;;7.60;99.90;;;;;;12472360;28;20812;-89
2021/12/14 19:17:18;;;;;;;98.85;36.70;;;7.60;99.90;;;;;;12459917;28;20551;-90
2021/12/14 19:23:38;;;;;;;98.38;37.28;;;7.60;99.90;;;;;;12468247;28;20061;-90
2021/12/14 19:29:50;;;;;;;96.97;37.00;;;7.60;99.90;;;;;;12462004;28;20053;-90
2021/12/14 19:35:52;;;;;;;92.63;36.53;;;7.60;99.90;;;;;;12459635;28;20045;-90
2021/12/14 19:42:11;;;;;;;94.40;35.15;;;7.60;99.90;;;;;;12451707;28;20056;-89
2021/12/14 19:48:15;;;;;;;85.25;33.53;;;7.60;99.90;;;;;;12450766;28;20052;-89
2021/12/14 19:54:25;;;;;;;73.03;29.75;;;7.60;99.90;;;;;;12452186;28;20045;-90
2021/12/14 20:00:33;;;;;;;71.07;29.90;;;7.60;99.90;;;;;;12459218;28;20057;-91
2021/12/14 20:06:44;;;;;;;66.13;28.40;;;7.50;99.90;;;;;;12470411;28;20049;-89
2021/12/14 20:12:50;;;;;;;65.78;28.10;;;7.60;99.90;;;;;;12457538;28;20048;-90
2021/12/14 20:18:53;;;;;;;62.45;26.15;;;7.60;99.90;;;;;;12475742;28;20109;-90
2021/12/14 20:24:57;;;;;;;57.88;25.90;;;7.60;99.90;;;;;;12460825;28;20500;-89
2021/12/14 20:31:05;;;;;;;64.63;27.37;;;7.60;99.90;;;;;;12458656;28;21232;-89
2021/12/14 20:37:09;;;;;;;65.50;26.77;;;7.60;99.90;;;;;;12453992;28;21288;-90
2021/12/14 20:49:19;;;;;;;72.03;28.30;;;7.60;99.90;;;;;;12477013;28;20100;-91
2021/12/14 20:55:25;;;;;;;69.88;28.17;;;7.60;99.90;;;;;;12453683;28;20044;-89
2021/12/14 21:01:30;;;;;;;74.72;28.33;;;7.60;99.90;;;;;;12475241;28;20045;-89
2021/12/14 21:07:32;;;;;;;76.28;28.42;;;7.70;99.90;;;;;;12460967;28;20045;-90
2021/12/14 21:13:38;;;;;;;84.43;30.40;;;7.60;99.90;;;;;;12461278;28;20090;-88
2021/12/14 21:19:48;;;;;;;81.10;29.10;;;7.70;99.90;;;;;;12455225;28;20132;-88
2021/12/14 21:25:52;;;;;;;87.88;29.30;;;7.60;99.90;;;;;;12473199;28;20050;-88
2021/12/14 21:31:55;;;;;;;89.05;30.23;;;7.70;99.90;;;;;;12456890;28;20080;-89
2021/12/14 21:38:20;;;;;;;90.63;31.23;;;7.70;99.90;;;;;;12466829;28;20469;-90
2021/12/14 21:50:48;;;;;;;81.93;29.40;;;7.70;99.90;;;;;;12472472;28;20037;-88
2021/12/14 21:56:49;;;;;;;80.55;28.23;;;7.70;99.90;;;;;;12472614;28;20555;-88
2021/12/14 22:02:54;;;;;;;60.85;24.45;;;7.70;99.90;;;;;;12454606;28;20356;-89
2021/12/14 22:08:57;;;;;;;54.60;21.08;;;7.70;99.90;;;;;;12454812;28;20073;-89
2021/12/14 22:15:03;;;;;;;57.05;22.25;;;7.70;99.90;;;;;;12472988;28;20053;-88
2021/12/14 22:21:07;;;;;;;58.83;23.63;;;7.70;99.90;;;;;;12458550;28;20049;-89
2021/12/14 22:27:09;;;;;;;60.65;23.60;;;7.70;99.90;;;;;;12456268;28;20467;-90
2021/12/14 22:33:12;;;;;;;55.03;21.15;;;7.70;99.90;;;;;;12452968;28;20812;-87
2021/12/14 22:39:17;;;;;;;47.72;19.70;;;7.70;99.90;;;;;;12454233;28;20107;-88
2021/12/14 22:45:19;;;;;;;78.45;27.13;;;7.70;99.90;;;;;;12454652;28;20059;-88
2021/12/14 22:51:21;;;;;;;83.93;26.67;;;7.80;99.90;;;;;;12458997;28;20041;-88
2021/12/14 22:57:25;;;;;;;79.68;29.48;;;7.80;99.90;;;;;;12447568;28;20493;-88
2021/12/14 23:03:27;;;;;;;88.65;29.50;;;7.80;99.90;;;;;;12451534;28;20638;-89
2021/12/14 23:09:37;;;;;;;90.38;28.48;;;7.80;99.90;;;;;;12448813;28;20415;-90
2021/12/14 23:15:54;;;;;;;98.50;32.92;;;7.80;99.90;;;;;;12449649;28;20502;-88
2021/12/14 23:21:56;;;;;;;104.15;33.38;;;7.80;99.90;;;;;;12449856;28;20083;-89
2021/12/14 23:27:58;;;;;;;109.82;34.03;;;7.80;99.90;;;;;;12470108;28;20045;-88
2021/12/14 23:34:00;;;;;;;107.45;33.50;;;7.90;99.90;;;;;;12456259;28;20056;-87
2021/12/14 23:40:04;;;;;;;105.63;34.22;;;7.80;99.90;;;;;;12464763;28;20429;-88
2021/12/14 23:52:34;;;;;;;95.05;29.70;;;7.90;99.90;;;;;;12449395;28;20037;-87
2021/12/14 23:58:41;;;;;;;82.10;28.52;;;7.90;99.90;;;;;;12458268;28;20111;-89
